createdAt,value
2023-12-09T00:15:23.694Z,100644.77
2023-12-09T00:31:00.627Z,100631.30
2023-12-09T00:46:37.813Z,100633.09
2023-12-09T01:02:14.696Z,100621.62
2023-12-09T01:17:51.912Z,100619.35
2023-12-09T01:33:28.880Z,100614.96
2023-12-09T01:49:06.003Z,100616.31
2023-12-09T02:04:42.970Z,100597.86
2023-12-09T02:20:22.009Z,100594.48
2023-12-09T02:36:00.992Z,100582.86
2023-12-09T02:51:37.995Z,100582.70
2023-12-09T03:07:15.063Z,100575.98
2023-12-09T03:22:52.185Z,100570.34
2023-12-09T03:38:29.130Z,100563.18
2023-12-09T03:54:06.186Z,100560.52
2023-12-09T04:09:44.264Z,100542.83
2023-12-09T04:25:21.276Z,100531.98
2023-12-09T04:40:58.299Z,100519.62
2023-12-09T04:56:35.378Z,100509.89
2023-12-09T05:12:12.634Z,100492.58
2023-12-09T05:27:49.407Z,100495.96
2023-12-09T05:43:26.533Z,100495.89
2023-12-09T05:59:06.354Z,100504.53
2023-12-09T06:14:43.759Z,100507.35
2023-12-09T06:30:20.659Z,100501.06
2023-12-09T06:45:57.589Z,100501.98
2023-12-09T07:01:38.729Z,100500.32
2023-12-09T07:17:16.201Z,100504.27
2023-12-09T07:32:55.149Z,100498.02
2023-12-09T07:48:34.078Z,100478.75
2023-12-09T08:04:11.150Z,100475.63
2023-12-09T08:19:47.951Z,100475.01
2023-12-09T08:35:24.991Z,100449.92
2023-12-09T08:51:02.168Z,100444.56
2023-12-09T09:06:39.119Z,100434.50
2023-12-09T09:22:16.061Z,100421.95
2023-12-09T09:37:53.292Z,100398.09
2023-12-09T09:53:48.328Z,100375.23
2023-12-09T10:09:25.435Z,100354.41
2023-12-09T10:25:06.742Z,100346.84
2023-12-09T10:40:43.511Z,100336.47
2023-12-09T10:56:20.640Z,100327.02
2023-12-09T11:11:57.808Z,100305.44
2023-12-09T11:27:37.716Z,100297.13
2023-12-09T11:43:16.652Z,100276.73
2023-12-09T11:58:53.784Z,100260.82
2023-12-09T12:14:30.776Z,100249.45
2023-12-09T12:30:09.902Z,100251.84
2023-12-09T12:45:49.183Z,100245.53
2023-12-09T13:01:25.917Z,100235.61
2023-12-09T13:17:02.928Z,100226.35
2023-12-09T13:32:40.079Z,100209.80
2023-12-09T13:48:17.192Z,100197.88
2023-12-09T14:03:54.118Z,100175.32
2023-12-09T14:19:38.174Z,100164.89
2023-12-09T14:35:15.377Z,100158.33
2023-12-09T14:50:53.315Z,100138.35
2023-12-09T15:06:30.493Z,100121.73
2023-12-09T15:22:07.183Z,100112.48
2023-12-09T15:37:44.205Z,100084.92
2023-12-09T15:53:21.295Z,100050.23
2023-12-09T16:08:58.466Z,100031.33
2023-12-09T16:24:35.499Z,100018.42
2023-12-09T16:40:12.482Z,100015.31
2023-12-09T16:55:49.489Z,100007.16
2023-12-09T17:11:27.749Z,100000.88
2023-12-09T17:27:04.660Z,99995.75
2023-12-09T17:42:41.708Z,99974.48
2023-12-09T17:58:18.665Z,99951.96
2023-12-09T18:13:55.619Z,99928.81
2023-12-09T18:29:34.726Z,99907.64
2023-12-09T18:45:14.945Z,99890.62
2023-12-09T19:01:01.853Z,99874.67
2023-12-09T19:16:44.899Z,99855.39
2023-12-09T19:32:23.023Z,99824.92
2023-12-09T19:48:03.034Z,99801.89
2023-12-09T20:03:40.137Z,99796.02
2023-12-09T20:19:18.195Z,99790.27
2023-12-09T20:34:55.316Z,99782.52
2023-12-09T20:50:42.254Z,99750.94
2023-12-09T21:06:21.816Z,99735.08
2023-12-09T21:21:59.148Z,99715.91
2023-12-09T21:37:36.343Z,99719.04
2023-12-09T21:53:13.358Z,99718.81
2023-12-09T22:08:50.515Z,99701.98
2023-12-09T22:24:27.585Z,99677.70
2023-12-09T22:40:05.774Z,99661.86
2023-12-09T22:55:42.593Z,99652.56
2023-12-09T23:11:19.403Z,99621.42
2023-12-09T23:26:56.625Z,99591.52
2023-12-09T23:42:33.692Z,99585.45
2023-12-09T23:58:11.921Z,99585.61
